Aérodrome :
LOGIN :

S'inscrire | Disclaimer

   EN    FR    IT 

 










Légende :    VFR   VFR Marginal   IFR   IFR Intensif   IFR Très Intensif
Visi : 
Plafond : 
>= 8 km
>= 3000ft
5 à 8 km
1000 à 3000 ft
1500m à 5 km
500 à 1000 ft
800 à 1500m
200 à 500 ft
< 800m
< 200 ft
Symboles :   Orages  Brouillard  Fortes neiges  Fortes précipitations  Vent > 20 kt
SIGMETs :   Divers  Orages  Givrage  Turbulence  Onde Orograph.  Cendres Volcan.







- Altitude de l'aérodrome : 1017 ft
- Voir les cartes d'approche


LFSL - Brive Souillac

DERNIER METAR :
  • 200500Z AUTO 00000KT 0750 0700 R29/0900U FG VV/// 05/04 Q1023 TEMPO 0400 FG

METARs EXPIRÉS :
  • 200430Z AUTO 17001KT 0350 R29/0275D FG VV/// 05/05 Q1024 NOSIG
  • 200400Z AUTO 00000KT 0250 R29/0275N FG VV/// 05/05 Q1024 TEMPO 2500 BR BECMG NSC
  • 200330Z AUTO VRB02KT 0900 0400 R29/0450D FG VV/// 05/04 Q1023 TEMPO 2500 BR BECMG NSC
  • 200300Z AUTO 00000KT CAVOK 05/05 Q1024 TEMPO 2500 BR
  • 200230Z AUTO 22001KT CAVOK 05/05 Q1024 TEMPO 2500 BR

TAF TAF LFSL
Valide du 20 à 06h jusqu'au 20 à 15h UTC


200500Z 2006/2015 VRB02KT 0600 FG VV///
BECMG 2007/2008 36006KT CAVOK
Pas de NOTAMs connus pour ce terrain.



MET'MAP, la Météo Aéronautique d'un coup d'oeil ! - Copyright ORBIFLY Décembre 2007 - Disclaimer

ORBIFLY MET'MAP TEAM :

Programmation & Développement : Alexandra Zaïnal
Conception & Développement : Baudouin d'Aumeries
Co-Programmation & Développement : Marc-Olivier Méhu
Soutien technique & logistique : Manuel Goepfert

Contact : metmap@orbifly.com




SOURCES & CREDITS :

   NOAA